sensor_id;sensor_type;location;lat;lon;timestamp;temperature;humidity
11639;DHT22;5875;35.940;126.892;2023-04-03T00:54:35;15.90;1.00
11639;DHT22;5875;35.940;126.892;2023-04-03T11:16:33;25.20;1.00
11639;DHT22;5875;35.940;126.892;2023-04-03T11:19:02;16.60;1.00
11639;DHT22;5875;35.940;126.892;2023-04-03T11:21:34;17.10;1.00
11639;DHT22;5875;35.940;126.892;2023-04-03T11:24:05;17.00;1.00
11639;DHT22;5875;35.940;126.892;2023-04-03T11:26:40;17.30;1.00
11639;DHT22;5875;35.940;126.892;2023-04-03T11:29:19;17.40;1.00
11639;DHT22;5875;35.940;126.892;2023-04-03T11:34:41;16.50;1.00
11639;DHT22;5875;35.940;126.892;2023-04-03T11:37:33;16.00;1.00
11639;DHT22;5875;35.940;126.892;2023-04-03T11:40:06;15.30;1.00
11639;DHT22;5875;35.940;126.892;2023-04-03T11:42:39;15.30;1.00
11639;DHT22;5875;35.940;126.892;2023-04-03T11:47:51;15.00;3.70
11639;DHT22;5875;35.940;126.892;2023-04-03T11:53:09;15.70;1.00
11639;DHT22;5875;35.940;126.892;2023-04-03T11:58:29;15.40;2.30
11639;DHT22;5875;35.940;126.892;2023-04-03T12:01:10;15.60;1.90
11639;DHT22;5875;35.940;126.892;2023-04-03T12:08:45;15.70;1.00
11639;DHT22;5875;35.940;126.892;2023-04-03T12:29:38;15.70;1.00
11639;DHT22;5875;35.940;126.892;2023-04-03T12:32:17;15.10;1.00
11639;DHT22;5875;35.940;126.892;2023-04-03T12:51:41;14.40;4.30
11639;DHT22;5875;35.940;126.892;2023-04-03T12:54:35;14.90;2.30
11639;DHT22;5875;35.940;126.892;2023-04-03T12:57:20;14.80;1.30
11639;DHT22;5875;35.940;126.892;2023-04-03T12:59:48;15.20;1.90
11639;DHT22;5875;35.940;126.892;2023-04-03T13:02:29;15.40;1.00
11639;DHT22;5875;35.940;126.892;2023-04-03T13:05:18;15.30;1.00
11639;DHT22;5875;35.940;126.892;2023-04-03T13:07:50;15.60;1.00
11639;DHT22;5875;35.940;126.892;2023-04-03T13:10:19;15.80;1.00
11639;DHT22;5875;35.940;126.892;2023-04-03T13:15:29;16.20;1.00
11639;DHT22;5875;35.940;126.892;2023-04-03T13:17:57;16.20;1.00
11639;DHT22;5875;35.940;126.892;2023-04-03T13:20:29;16.20;1.00
11639;DHT22;5875;35.940;126.892;2023-04-03T13:23:00;16.30;1.00
11639;DHT22;5875;35.940;126.892;2023-04-03T13:25:33;16.20;1.00
11639;DHT22;5875;35.940;126.892;2023-04-03T13:28:03;16.10;1.00
11639;DHT22;5875;35.940;126.892;2023-04-03T13:30:34;16.10;1.00
11639;DHT22;5875;35.940;126.892;2023-04-03T13:33:06;16.30;1.00
11639;DHT22;5875;35.940;126.892;2023-04-03T13:35:39;16.30;1.00
11639;DHT22;5875;35.940;126.892;2023-04-03T13:38:24;16.20;1.00
11639;DHT22;5875;35.940;126.892;2023-04-03T13:40:54;16.10;1.00
11639;DHT22;5875;35.940;126.892;2023-04-03T13:43:27;16.10;1.00
11639;DHT22;5875;35.940;126.892;2023-04-03T13:48:26;16.00;1.00
11639;DHT22;5875;35.940;126.892;2023-04-03T13:51:06;15.80;1.00
11639;DHT22;5875;35.940;126.892;2023-04-03T13:53:41;15.80;1.00
11639;DHT22;5875;35.940;126.892;2023-04-03T13:56:34;15.80;1.00
11639;DHT22;5875;35.940;126.892;2023-04-03T14:02:09;15.80;1.00
11639;DHT22;5875;35.940;126.892;2023-04-03T14:04:51;15.90;1.00
11639;DHT22;5875;35.940;126.892;2023-04-03T14:07:19;15.90;1.00
11639;DHT22;5875;35.940;126.892;2023-04-03T14:09:48;15.80;1.00
11639;DHT22;5875;35.940;126.892;2023-04-03T14:12:27;15.90;1.00
11639;DHT22;5875;35.940;126.892;2023-04-03T14:14:56;15.90;1.00
11639;DHT22;5875;35.940;126.892;2023-04-03T14:17:26;15.80;1.00
11639;DHT22;5875;35.940;126.892;2023-04-03T14:19:55;15.90;1.00
11639;DHT22;5875;35.940;126.892;2023-04-03T14:22:28;15.90;1.00
11639;DHT22;5875;35.940;126.892;2023-04-03T14:24:56;15.90;1.00
11639;DHT22;5875;35.940;126.892;2023-04-03T14:29:54;15.70;1.00
11639;DHT22;5875;35.940;126.892;2023-04-03T14:32:24;15.80;1.00
11639;DHT22;5875;35.940;126.892;2023-04-03T14:34:52;15.70;1.00
11639;DHT22;5875;35.940;126.892;2023-04-03T14:37:23;15.80;1.00
11639;DHT22;5875;35.940;126.892;2023-04-03T14:39:53;15.80;1.00
11639;DHT22;5875;35.940;126.892;2023-04-03T14:42:27;15.70;1.00
11639;DHT22;5875;35.940;126.892;2023-04-03T14:44:55;15.80;1.00
11639;DHT22;5875;35.940;126.892;2023-04-03T14:47:27;15.80;1.00
11639;DHT22;5875;35.940;126.892;2023-04-03T14:49:55;15.80;1.00
11639;DHT22;5875;35.940;126.892;2023-04-03T14:52:27;15.80;1.00
11639;DHT22;5875;35.940;126.892;2023-04-03T14:54:55;15.70;1.00
11639;DHT22;5875;35.940;126.892;2023-04-03T14:57:24;15.70;1.30
11639;DHT22;5875;35.940;126.892;2023-04-03T14:59:52;15.60;1.70
11639;DHT22;5875;35.940;126.892;2023-04-03T15:02:32;15.60;2.40
11639;DHT22;5875;35.940;126.892;2023-04-03T15:05:01;15.50;3.00
11639;DHT22;5875;35.940;126.892;2023-04-03T15:07:39;15.50;3.50
11639;DHT22;5875;35.940;126.892;2023-04-03T15:10:23;15.40;4.10
11639;DHT22;5875;35.940;126.892;2023-04-03T15:12:51;15.40;4.40
11639;DHT22;5875;35.940;126.892;2023-04-03T15:15:20;15.40;4.80
11639;DHT22;5875;35.940;126.892;2023-04-03T15:17:52;15.40;5.20
11639;DHT22;5875;35.940;126.892;2023-04-03T15:20:26;15.30;5.90
11639;DHT22;5875;35.940;126.892;2023-04-03T15:22:54;15.40;6.20
11639;DHT22;5875;35.940;126.892;2023-04-03T15:25:23;15.30;6.50
11639;DHT22;5875;35.940;126.892;2023-04-03T15:27:52;15.20;7.00
11639;DHT22;5875;35.940;126.892;2023-04-03T15:30:20;15.30;7.50
11639;DHT22;5875;35.940;126.892;2023-04-03T15:32:48;15.30;7.90
11639;DHT22;5875;35.940;126.892;2023-04-03T15:35:15;15.30;8.00
11639;DHT22;5875;35.940;126.892;2023-04-03T15:37:42;15.30;8.10
11639;DHT22;5875;35.940;126.892;2023-04-03T15:40:10;15.30;8.00
11639;DHT22;5875;35.940;126.892;2023-04-03T15:42:37;15.40;7.70
11639;DHT22;5875;35.940;126.892;2023-04-03T15:45:06;15.20;8.40
11639;DHT22;5875;35.940;126.892;2023-04-03T15:47:33;15.10;8.80
11639;DHT22;5875;35.940;126.892;2023-04-03T15:50:00;15.30;9.10
11639;DHT22;5875;35.940;126.892;2023-04-03T15:52:28;15.30;8.60
11639;DHT22;5875;35.940;126.892;2023-04-03T15:54:55;15.40;8.20
11639;DHT22;5875;35.940;126.892;2023-04-03T15:57:22;15.40;8.10
11639;DHT22;5875;35.940;126.892;2023-04-03T15:59:52;15.40;8.40
11639;DHT22;5875;35.940;126.892;2023-04-03T16:02:19;15.50;7.90
11639;DHT22;5875;35.940;126.892;2023-04-03T16:04:47;15.50;7.60
11639;DHT22;5875;35.940;126.892;2023-04-03T16:07:15;15.30;8.10
11639;DHT22;5875;35.940;126.892;2023-04-03T16:09:42;15.10;10.60
11639;DHT22;5875;35.940;126.892;2023-04-03T16:12:09;15.00;11.00
11639;DHT22;5875;35.940;126.892;2023-04-03T16:14:36;15.00;11.60
11639;DHT22;5875;35.940;126.892;2023-04-03T16:17:04;15.00;12.90
11639;DHT22;5875;35.940;126.892;2023-04-03T16:19:31;14.90;12.40
11639;DHT22;5875;35.940;126.892;2023-04-03T16:21:58;15.10;12.00
11639;DHT22;5875;35.940;126.892;2023-04-03T16:24:25;15.10;12.10
11639;DHT22;5875;35.940;126.892;2023-04-03T16:26:53;14.70;13.30
11639;DHT22;5875;35.940;126.892;2023-04-03T16:29:20;14.60;15.90
11639;DHT22;5875;35.940;126.892;2023-04-03T16:31:47;14.80;16.80
11639;DHT22;5875;35.940;126.892;2023-04-03T16:34:14;14.80;15.70
11639;DHT22;5875;35.940;126.892;2023-04-03T16:36:42;14.90;15.50
11639;DHT22;5875;35.940;126.892;2023-04-03T16:39:09;14.80;16.40
11639;DHT22;5875;35.940;126.892;2023-04-03T16:41:36;14.90;16.50
11639;DHT22;5875;35.940;126.892;2023-04-03T16:44:04;14.90;15.30
11639;DHT22;5875;35.940;126.892;2023-04-03T16:46:33;14.70;16.00
11639;DHT22;5875;35.940;126.892;2023-04-03T16:49:00;14.20;18.10
11639;DHT22;5875;35.940;126.892;2023-04-03T16:51:27;14.40;19.50
11639;DHT22;5875;35.940;126.892;2023-04-03T16:53:55;14.00;26.00
11639;DHT22;5875;35.940;126.892;2023-04-03T16:56:22;14.10;26.50
11639;DHT22;5875;35.940;126.892;2023-04-03T16:58:49;14.40;24.80
11639;DHT22;5875;35.940;126.892;2023-04-03T17:01:18;14.40;24.60
11639;DHT22;5875;35.940;126.892;2023-04-03T17:03:46;14.50;23.90
11639;DHT22;5875;35.940;126.892;2023-04-03T17:06:19;14.30;25.20
11639;DHT22;5875;35.940;126.892;2023-04-03T17:08:48;14.50;24.90
11639;DHT22;5875;35.940;126.892;2023-04-03T17:11:15;14.40;25.50
11639;DHT22;5875;35.940;126.892;2023-04-03T17:13:43;14.50;24.60
11639;DHT22;5875;35.940;126.892;2023-04-03T17:16:12;14.50;24.30
11639;DHT22;5875;35.940;126.892;2023-04-03T17:18:41;14.30;25.00
11639;DHT22;5875;35.940;126.892;2023-04-03T17:21:08;14.30;25.40
11639;DHT22;5875;35.940;126.892;2023-04-03T17:23:37;13.80;29.70
11639;DHT22;5875;35.940;126.892;2023-04-03T17:26:05;14.20;29.60
11639;DHT22;5875;35.940;126.892;2023-04-03T17:28:32;14.30;28.40
11639;DHT22;5875;35.940;126.892;2023-04-03T17:31:00;14.40;26.80
11639;DHT22;5875;35.940;126.892;2023-04-03T17:33:29;14.40;27.80
11639;DHT22;5875;35.940;126.892;2023-04-03T17:35:58;14.40;27.20
11639;DHT22;5875;35.940;126.892;2023-04-03T17:38:27;14.30;27.30
11639;DHT22;5875;35.940;126.892;2023-04-03T17:40:58;14.40;27.00
11639;DHT22;5875;35.940;126.892;2023-04-03T17:43:26;14.30;27.10
11639;DHT22;5875;35.940;126.892;2023-04-03T17:45:56;14.10;29.30
11639;DHT22;5875;35.940;126.892;2023-04-03T17:48:32;13.90;34.50
11639;DHT22;5875;35.940;126.892;2023-04-03T17:51:07;13.50;44.70
11639;DHT22;5875;35.940;126.892;2023-04-03T17:53:34;13.60;45.30
11639;DHT22;5875;35.940;126.892;2023-04-03T17:56:08;14.00;43.70
11639;DHT22;5875;35.940;126.892;2023-04-03T17:58:36;14.10;42.00
11639;DHT22;5875;35.940;126.892;2023-04-03T18:01:17;14.00;38.80
11639;DHT22;5875;35.940;126.892;2023-04-03T18:03:46;14.10;39.20
11639;DHT22;5875;35.940;126.892;2023-04-03T18:06:16;14.10;37.80
11639;DHT22;5875;35.940;126.892;2023-04-03T18:08:50;14.30;36.60
11639;DHT22;5875;35.940;126.892;2023-04-03T18:11:19;14.30;35.30
11639;DHT22;5875;35.940;126.892;2023-04-03T18:13:47;14.40;34.70
11639;DHT22;5875;35.940;126.892;2023-04-03T18:16:14;14.40;34.60
11639;DHT22;5875;35.940;126.892;2023-04-03T18:18:42;14.40;34.30
11639;DHT22;5875;35.940;126.892;2023-04-03T18:21:10;14.20;36.00
11639;DHT22;5875;35.940;126.892;2023-04-03T18:23:40;14.30;37.60
11639;DHT22;5875;35.940;126.892;2023-04-03T18:26:09;14.20;37.00
11639;DHT22;5875;35.940;126.892;2023-04-03T18:28:42;14.10;38.50
11639;DHT22;5875;35.940;126.892;2023-04-03T18:31:12;13.60;44.60
11639;DHT22;5875;35.940;126.892;2023-04-03T18:33:42;13.00;68.70
11639;DHT22;5875;35.940;126.892;2023-04-03T18:36:09;13.30;65.90
11639;DHT22;5875;35.940;126.892;2023-04-03T18:38:37;13.50;63.10
11639;DHT22;5875;35.940;126.892;2023-04-03T18:41:08;13.50;55.50
11639;DHT22;5875;35.940;126.892;2023-04-03T18:43:35;13.10;57.30
11639;DHT22;5875;35.940;126.892;2023-04-03T18:46:04;13.10;59.30
11639;DHT22;5875;35.940;126.892;2023-04-03T18:48:35;13.30;52.20
11639;DHT22;5875;35.940;126.892;2023-04-03T18:51:08;13.50;49.50
11639;DHT22;5875;35.940;126.892;2023-04-03T18:53:35;13.60;49.40
11639;DHT22;5875;35.940;126.892;2023-04-03T18:56:03;13.60;47.70
11639;DHT22;5875;35.940;126.892;2023-04-03T18:58:30;13.60;49.60
11639;DHT22;5875;35.940;126.892;2023-04-03T19:01:00;13.70;48.50
11639;DHT22;5875;35.940;126.892;2023-04-03T19:03:28;13.70;48.10
11639;DHT22;5875;35.940;126.892;2023-04-03T19:05:57;13.90;46.60
11639;DHT22;5875;35.940;126.892;2023-04-03T19:08:24;14.00;45.30
11639;DHT22;5875;35.940;126.892;2023-04-03T19:10:51;13.80;44.30
11639;DHT22;5875;35.940;126.892;2023-04-03T19:13:18;13.80;45.50
11639;DHT22;5875;35.940;126.892;2023-04-03T19:15:45;13.60;47.70
11639;DHT22;5875;35.940;126.892;2023-04-03T19:18:14;13.70;46.50
11639;DHT22;5875;35.940;126.892;2023-04-03T19:20:41;13.70;46.70
11639;DHT22;5875;35.940;126.892;2023-04-03T19:23:08;13.60;47.50
11639;DHT22;5875;35.940;126.892;2023-04-03T19:25:36;13.70;46.80
11639;DHT22;5875;35.940;126.892;2023-04-03T19:28:03;13.60;45.30
11639;DHT22;5875;35.940;126.892;2023-04-03T19:30:31;13.80;46.00
11639;DHT22;5875;35.940;126.892;2023-04-03T19:32:58;13.90;42.00
11639;DHT22;5875;35.940;126.892;2023-04-03T19:35:25;13.70;40.70
11639;DHT22;5875;35.940;126.892;2023-04-03T19:37:52;13.80;41.00
11639;DHT22;5875;35.940;126.892;2023-04-03T19:40:20;13.30;44.70
11639;DHT22;5875;35.940;126.892;2023-04-03T19:42:47;13.30;49.70
11639;DHT22;5875;35.940;126.892;2023-04-03T19:45:14;13.10;49.30
11639;DHT22;5875;35.940;126.892;2023-04-03T19:47:43;12.70;60.10
11639;DHT22;5875;35.940;126.892;2023-04-03T19:50:10;13.10;62.20
11639;DHT22;5875;35.940;126.892;2023-04-03T19:52:37;13.20;57.10
11639;DHT22;5875;35.940;126.892;2023-04-03T19:55:05;13.20;58.60
11639;DHT22;5875;35.940;126.892;2023-04-03T19:57:32;13.40;55.60
11639;DHT22;5875;35.940;126.892;2023-04-03T19:59:59;13.40;49.00
11639;DHT22;5875;35.940;126.892;2023-04-03T20:02:27;13.40;46.80
11639;DHT22;5875;35.940;126.892;2023-04-03T20:04:54;13.30;46.40
11639;DHT22;5875;35.940;126.892;2023-04-03T20:07:21;13.20;47.30
11639;DHT22;5875;35.940;126.892;2023-04-03T20:09:50;13.20;45.30
11639;DHT22;5875;35.940;126.892;2023-04-03T20:12:17;13.10;44.00
11639;DHT22;5875;35.940;126.892;2023-04-03T20:14:45;13.00;43.30
11639;DHT22;5875;35.940;126.892;2023-04-03T20:17:12;13.00;45.00
11639;DHT22;5875;35.940;126.892;2023-04-03T20:19:40;13.00;46.10
11639;DHT22;5875;35.940;126.892;2023-04-03T20:22:07;13.00;47.80
11639;DHT22;5875;35.940;126.892;2023-04-03T20:24:34;13.00;46.40
11639;DHT22;5875;35.940;126.892;2023-04-03T20:27:01;13.10;46.40
11639;DHT22;5875;35.940;126.892;2023-04-03T20:29:28;13.00;44.30
11639;DHT22;5875;35.940;126.892;2023-04-03T20:31:56;13.00;47.30
11639;DHT22;5875;35.940;126.892;2023-04-03T20:34:23;13.10;45.80
11639;DHT22;5875;35.940;126.892;2023-04-03T20:36:51;13.20;45.30
11639;DHT22;5875;35.940;126.892;2023-04-03T20:39:18;13.20;44.50
11639;DHT22;5875;35.940;126.892;2023-04-03T20:41:49;13.30;43.50
11639;DHT22;5875;35.940;126.892;2023-04-03T20:44:16;13.30;42.70
11639;DHT22;5875;35.940;126.892;2023-04-03T20:46:45;13.30;42.60
11639;DHT22;5875;35.940;126.892;2023-04-03T20:49:12;13.30;41.10
11639;DHT22;5875;35.940;126.892;2023-04-03T20:51:39;13.20;39.70
11639;DHT22;5875;35.940;126.892;2023-04-03T20:54:07;13.20;40.90
11639;DHT22;5875;35.940;126.892;2023-04-03T20:56:35;13.30;41.10
11639;DHT22;5875;35.940;126.892;2023-04-03T20:59:02;13.30;40.90
11639;DHT22;5875;35.940;126.892;2023-04-03T21:01:30;13.20;40.00
11639;DHT22;5875;35.940;126.892;2023-04-03T21:04:04;13.20;40.20
11639;DHT22;5875;35.940;126.892;2023-04-03T21:20:57;12.70;46.60
11639;DHT22;5875;35.940;126.892;2023-04-03T21:23:25;12.70;45.90
11639;DHT22;5875;35.940;126.892;2023-04-03T21:25:54;12.70;46.70
11639;DHT22;5875;35.940;126.892;2023-04-03T21:28:23;12.70;46.40
11639;DHT22;5875;35.940;126.892;2023-04-03T21:30:50;12.80;45.00
11639;DHT22;5875;35.940;126.892;2023-04-03T21:33:17;12.80;43.80
11639;DHT22;5875;35.940;126.892;2023-04-03T21:35:44;12.80;44.80
11639;DHT22;5875;35.940;126.892;2023-04-03T21:38:12;12.70;44.30
11639;DHT22;5875;35.940;126.892;2023-04-03T21:40:40;12.90;44.00
11639;DHT22;5875;35.940;126.892;2023-04-03T21:43:17;12.80;43.60
11639;DHT22;5875;35.940;126.892;2023-04-03T21:45:44;12.80;42.10
11639;DHT22;5875;35.940;126.892;2023-04-03T21:48:14;12.80;40.40
11639;DHT22;5875;35.940;126.892;2023-04-03T21:50:45;12.80;39.20
11639;DHT22;5875;35.940;126.892;2023-04-03T21:53:13;12.70;39.90
11639;DHT22;5875;35.940;126.892;2023-04-03T21:55:41;12.50;40.20
11639;DHT22;5875;35.940;126.892;2023-04-03T21:58:08;12.60;43.10
11639;DHT22;5875;35.940;126.892;2023-04-03T22:00:35;12.70;42.60
11639;DHT22;5875;35.940;126.892;2023-04-03T22:03:02;13.00;42.00
11639;DHT22;5875;35.940;126.892;2023-04-03T22:05:31;13.00;41.00
11639;DHT22;5875;35.940;126.892;2023-04-03T22:07:58;13.00;39.60
11639;DHT22;5875;35.940;126.892;2023-04-03T22:10:25;13.10;38.60
11639;DHT22;5875;35.940;126.892;2023-04-03T22:12:53;13.10;37.70
11639;DHT22;5875;35.940;126.892;2023-04-03T22:15:20;13.20;36.50
11639;DHT22;5875;35.940;126.892;2023-04-03T22:17:47;13.20;35.70
11639;DHT22;5875;35.940;126.892;2023-04-03T22:20:14;13.40;36.20
11639;DHT22;5875;35.940;126.892;2023-04-03T22:22:42;13.30;35.70
11639;DHT22;5875;35.940;126.892;2023-04-03T22:25:09;13.40;35.70
11639;DHT22;5875;35.940;126.892;2023-04-03T22:27:36;13.50;31.00
11639;DHT22;5875;35.940;126.892;2023-04-03T22:30:04;13.50;27.80
11639;DHT22;5875;35.940;126.892;2023-04-03T22:32:31;13.50;29.50
11639;DHT22;5875;35.940;126.892;2023-04-03T22:34:58;13.60;31.90
11639;DHT22;5875;35.940;126.892;2023-04-03T22:37:26;13.70;33.40
11639;DHT22;5875;35.940;126.892;2023-04-03T22:39:53;13.90;34.70
11639;DHT22;5875;35.940;126.892;2023-04-03T22:42:20;14.00;36.80
11639;DHT22;5875;35.940;126.892;2023-04-03T22:44:47;14.10;36.60
11639;DHT22;5875;35.940;126.892;2023-04-03T22:47:15;14.30;35.00
11639;DHT22;5875;35.940;126.892;2023-04-03T22:49:42;14.30;34.30
11639;DHT22;5875;35.940;126.892;2023-04-03T22:52:09;14.30;32.60
11639;DHT22;5875;35.940;126.892;2023-04-03T22:54:36;14.30;33.30
11639;DHT22;5875;35.940;126.892;2023-04-03T22:57:03;14.50;32.00
11639;DHT22;5875;35.940;126.892;2023-04-03T22:59:30;14.60;30.30
11639;DHT22;5875;35.940;126.892;2023-04-03T23:01:58;14.70;30.50
11639;DHT22;5875;35.940;126.892;2023-04-03T23:04:25;14.70;31.20
11639;DHT22;5875;35.940;126.892;2023-04-03T23:06:52;14.70;30.00
11639;DHT22;5875;35.940;126.892;2023-04-03T23:09:19;14.70;29.60
11639;DHT22;5875;35.940;126.892;2023-04-03T23:11:46;14.70;30.30
11639;DHT22;5875;35.940;126.892;2023-04-03T23:14:13;14.80;29.20
11639;DHT22;5875;35.940;126.892;2023-04-03T23:16:41;14.80;29.90
11639;DHT22;5875;35.940;126.892;2023-04-03T23:19:08;15.00;30.50
11639;DHT22;5875;35.940;126.892;2023-04-03T23:21:35;15.10;29.80
11639;DHT22;5875;35.940;126.892;2023-04-03T23:24:02;15.20;28.60
11639;DHT22;5875;35.940;126.892;2023-04-03T23:26:29;15.40;27.10
11639;DHT22;5875;35.940;126.892;2023-04-03T23:28:56;15.60;26.30
11639;DHT22;5875;35.940;126.892;2023-04-03T23:31:23;15.70;22.60
11639;DHT22;5875;35.940;126.892;2023-04-03T23:43:40;15.90;20.00
11639;DHT22;5875;35.940;126.892;2023-04-03T23:46:07;17.40;11.00
11639;DHT22;5875;35.940;126.892;2023-04-03T23:48:34;17.80;9.60
11639;DHT22;5875;35.940;126.892;2023-04-03T23:51:02;18.20;7.50
11639;DHT22;5875;35.940;126.892;2023-04-03T23:53:30;18.30;4.20
11639;DHT22;5875;35.940;126.892;2023-04-03T23:55:57;18.50;3.50
11639;DHT22;5875;35.940;126.892;2023-04-03T23:58:24;18.70;1.00
